sensor_id;sensor_type;location;lat;lon;timestamp;temperature;humidity
39751;DHT22;37579;51.074;17.004;2023-02-01T00:01:26;22.80;54.70
39751;DHT22;37579;51.074;17.004;2023-02-01T00:03:52;22.80;54.70
39751;DHT22;37579;51.074;17.004;2023-02-01T00:06:18;22.80;55.20
39751;DHT22;37579;51.074;17.004;2023-02-01T00:08:44;22.80;54.50
39751;DHT22;37579;51.074;17.004;2023-02-01T00:11:11;22.80;54.50
39751;DHT22;37579;51.074;17.004;2023-02-01T00:13:39;22.80;54.60
39751;DHT22;37579;51.074;17.004;2023-02-01T00:16:14;22.80;54.50
39751;DHT22;37579;51.074;17.004;2023-02-01T00:18:45;22.80;54.70
39751;DHT22;37579;51.074;17.004;2023-02-01T00:21:12;22.80;54.40
39751;DHT22;37579;51.074;17.004;2023-02-01T00:23:38;22.80;54.50
39751;DHT22;37579;51.074;17.004;2023-02-01T00:26:11;22.80;54.40
39751;DHT22;37579;51.074;17.004;2023-02-01T00:28:38;22.80;54.30
39751;DHT22;37579;51.074;17.004;2023-02-01T00:31:04;22.80;54.40
39751;DHT22;37579;51.074;17.004;2023-02-01T00:33:31;22.80;54.50
39751;DHT22;37579;51.074;17.004;2023-02-01T00:36:01;22.80;54.40
39751;DHT22;37579;51.074;17.004;2023-02-01T00:38:28;22.80;54.40
39751;DHT22;37579;51.074;17.004;2023-02-01T00:41:01;22.80;54.30
39751;DHT22;37579;51.074;17.004;2023-02-01T00:43:26;22.80;54.40
39751;DHT22;37579;51.074;17.004;2023-02-01T00:45:52;22.80;54.40
39751;DHT22;37579;51.074;17.004;2023-02-01T00:48:18;22.80;54.30
39751;DHT22;37579;51.074;17.004;2023-02-01T00:50:44;22.70;54.80
39751;DHT22;37579;51.074;17.004;2023-02-01T00:53:11;22.80;54.40
39751;DHT22;37579;51.074;17.004;2023-02-01T00:55:37;22.70;54.30
39751;DHT22;37579;51.074;17.004;2023-02-01T00:58:03;22.70;54.40
39751;DHT22;37579;51.074;17.004;2023-02-01T01:00:32;22.70;54.50
39751;DHT22;37579;51.074;17.004;2023-02-01T01:02:57;22.70;54.40
39751;DHT22;37579;51.074;17.004;2023-02-01T01:05:23;22.70;54.40
39751;DHT22;37579;51.074;17.004;2023-02-01T01:07:49;22.70;54.40
39751;DHT22;37579;51.074;17.004;2023-02-01T01:10:15;22.70;55.10
39751;DHT22;37579;51.074;17.004;2023-02-01T01:12:41;22.70;54.40
39751;DHT22;37579;51.074;17.004;2023-02-01T01:15:07;22.70;54.40
39751;DHT22;37579;51.074;17.004;2023-02-01T01:17:33;22.70;54.40
39751;DHT22;37579;51.074;17.004;2023-02-01T01:19:59;22.70;54.40
39751;DHT22;37579;51.074;17.004;2023-02-01T01:22:25;22.70;54.40
39751;DHT22;37579;51.074;17.004;2023-02-01T01:24:51;22.70;54.50
39751;DHT22;37579;51.074;17.004;2023-02-01T01:27:16;22.70;54.40
39751;DHT22;37579;51.074;17.004;2023-02-01T01:29:48;22.60;54.40
39751;DHT22;37579;51.074;17.004;2023-02-01T01:32:14;22.60;54.40
39751;DHT22;37579;51.074;17.004;2023-02-01T01:34:40;22.60;54.40
39751;DHT22;37579;51.074;17.004;2023-02-01T01:37:06;22.60;54.40
39751;DHT22;37579;51.074;17.004;2023-02-01T01:39:32;22.60;54.30
39751;DHT22;37579;51.074;17.004;2023-02-01T01:41:58;22.60;54.30
39751;DHT22;37579;51.074;17.004;2023-02-01T01:47:24;22.60;54.20
39751;DHT22;37579;51.074;17.004;2023-02-01T01:49:51;22.60;54.20
39751;DHT22;37579;51.074;17.004;2023-02-01T01:52:17;22.60;54.20
39751;DHT22;37579;51.074;17.004;2023-02-01T01:54:51;22.60;54.20
39751;DHT22;37579;51.074;17.004;2023-02-01T01:57:25;22.60;54.20
39751;DHT22;37579;51.074;17.004;2023-02-01T02:00:13;22.60;54.20
39751;DHT22;37579;51.074;17.004;2023-02-01T02:02:41;22.50;54.20
39751;DHT22;37579;51.074;17.004;2023-02-01T02:05:09;22.50;54.20
39751;DHT22;37579;51.074;17.004;2023-02-01T02:07:39;22.50;54.20
39751;DHT22;37579;51.074;17.004;2023-02-01T02:10:08;22.50;54.20
39751;DHT22;37579;51.074;17.004;2023-02-01T02:12:40;22.50;54.20
39751;DHT22;37579;51.074;17.004;2023-02-01T02:15:08;22.50;54.20
39751;DHT22;37579;51.074;17.004;2023-02-01T02:18:09;22.50;54.20
39751;DHT22;37579;51.074;17.004;2023-02-01T02:26:34;22.60;53.90
39751;DHT22;37579;51.074;17.004;2023-02-01T02:37:39;22.70;53.80
39751;DHT22;37579;51.074;17.004;2023-02-01T02:41:03;22.70;53.70
39751;DHT22;37579;51.074;17.004;2023-02-01T02:46:09;22.80;53.60
39751;DHT22;37579;51.074;17.004;2023-02-01T02:49:18;22.80;53.50
39751;DHT22;37579;51.074;17.004;2023-02-01T02:51:50;22.80;53.50
39751;DHT22;37579;51.074;17.004;2023-02-01T02:54:41;22.80;53.40
39751;DHT22;37579;51.074;17.004;2023-02-01T02:57:26;22.80;53.40
39751;DHT22;37579;51.074;17.004;2023-02-01T03:00:21;22.80;53.40
39751;DHT22;37579;51.074;17.004;2023-02-01T03:03:07;22.80;53.30
39751;DHT22;37579;51.074;17.004;2023-02-01T03:05:52;22.80;53.30
39751;DHT22;37579;51.074;17.004;2023-02-01T03:08:25;22.80;53.30
39751;DHT22;37579;51.074;17.004;2023-02-01T03:16:34;22.80;53.30
39751;DHT22;37579;51.074;17.004;2023-02-01T03:21:59;22.80;53.30
39751;DHT22;37579;51.074;17.004;2023-02-01T03:24:31;22.70;53.30
39751;DHT22;37579;51.074;17.004;2023-02-01T03:29:55;22.70;53.30
39751;DHT22;37579;51.074;17.004;2023-02-01T03:32:23;22.70;53.40
39751;DHT22;37579;51.074;17.004;2023-02-01T03:34:49;22.70;53.40
39751;DHT22;37579;51.074;17.004;2023-02-01T03:37:24;22.70;53.40
39751;DHT22;37579;51.074;17.004;2023-02-01T03:40:03;22.70;53.40
39751;DHT22;37579;51.074;17.004;2023-02-01T03:42:37;22.70;53.40
39751;DHT22;37579;51.074;17.004;2023-02-01T03:47:43;22.70;53.40
39751;DHT22;37579;51.074;17.004;2023-02-01T03:50:11;22.70;53.40
39751;DHT22;37579;51.074;17.004;2023-02-01T03:53:27;22.70;53.40
39751;DHT22;37579;51.074;17.004;2023-02-01T03:55:28;22.70;53.40
39751;DHT22;37579;51.074;17.004;2023-02-01T04:00:26;22.70;53.50
39751;DHT22;37579;51.074;17.004;2023-02-01T04:02:55;22.70;53.40
39751;DHT22;37579;51.074;17.004;2023-02-01T04:05:21;22.70;53.40
39751;DHT22;37579;51.074;17.004;2023-02-01T04:08:00;22.70;53.40
39751;DHT22;37579;51.074;17.004;2023-02-01T04:10:27;22.70;53.40
39751;DHT22;37579;51.074;17.004;2023-02-01T04:12:53;22.70;53.40
39751;DHT22;37579;51.074;17.004;2023-02-01T04:15:19;22.70;53.40
39751;DHT22;37579;51.074;17.004;2023-02-01T04:17:45;22.70;53.40
39751;DHT22;37579;51.074;17.004;2023-02-01T04:20:11;22.70;53.40
39751;DHT22;37579;51.074;17.004;2023-02-01T04:22:37;22.70;53.40
39751;DHT22;37579;51.074;17.004;2023-02-01T04:25:03;22.70;53.40
39751;DHT22;37579;51.074;17.004;2023-02-01T04:27:31;22.70;53.40
39751;DHT22;37579;51.074;17.004;2023-02-01T04:29:57;22.70;53.30
39751;DHT22;37579;51.074;17.004;2023-02-01T04:32:23;22.70;53.50
39751;DHT22;37579;51.074;17.004;2023-02-01T04:34:48;22.70;53.40
39751;DHT22;37579;51.074;17.004;2023-02-01T04:37:14;22.70;53.40
39751;DHT22;37579;51.074;17.004;2023-02-01T04:39:40;22.70;53.40
39751;DHT22;37579;51.074;17.004;2023-02-01T04:42:06;22.70;53.40
39751;DHT22;37579;51.074;17.004;2023-02-01T04:44:32;22.60;53.20
39751;DHT22;37579;51.074;17.004;2023-02-01T04:46:57;22.70;53.30
39751;DHT22;37579;51.074;17.004;2023-02-01T04:49:24;22.70;53.30
39751;DHT22;37579;51.074;17.004;2023-02-01T04:51:51;22.70;53.30
39751;DHT22;37579;51.074;17.004;2023-02-01T04:54:17;22.60;53.20
39751;DHT22;37579;51.074;17.004;2023-02-01T04:56:43;22.60;53.20
39751;DHT22;37579;51.074;17.004;2023-02-01T04:59:11;22.60;53.20
39751;DHT22;37579;51.074;17.004;2023-02-01T05:01:37;22.60;53.30
39751;DHT22;37579;51.074;17.004;2023-02-01T05:04:03;22.60;53.20
39751;DHT22;37579;51.074;17.004;2023-02-01T05:06:29;22.60;53.30
39751;DHT22;37579;51.074;17.004;2023-02-01T05:08:55;22.60;53.20
39751;DHT22;37579;51.074;17.004;2023-02-01T05:11:21;22.60;53.20
39751;DHT22;37579;51.074;17.004;2023-02-01T05:14:05;22.60;53.40
39751;DHT22;37579;51.074;17.004;2023-02-01T05:16:31;22.60;53.40
39751;DHT22;37579;51.074;17.004;2023-02-01T05:18:57;22.50;53.40
39751;DHT22;37579;51.074;17.004;2023-02-01T05:21:23;22.60;53.40
39751;DHT22;37579;51.074;17.004;2023-02-01T05:23:48;22.60;53.40
39751;DHT22;37579;51.074;17.004;2023-02-01T05:26:33;22.60;53.20
39751;DHT22;37579;51.074;17.004;2023-02-01T05:28:59;22.70;53.10
39751;DHT22;37579;51.074;17.004;2023-02-01T05:31:25;22.70;52.90
39751;DHT22;37579;51.074;17.004;2023-02-01T05:33:51;22.80;52.80
39751;DHT22;37579;51.074;17.004;2023-02-01T05:36:17;22.80;52.80
39751;DHT22;37579;51.074;17.004;2023-02-01T05:38:43;22.80;52.70
39751;DHT22;37579;51.074;17.004;2023-02-01T05:41:08;22.80;52.60
39751;DHT22;37579;51.074;17.004;2023-02-01T05:43:34;22.90;52.60
39751;DHT22;37579;51.074;17.004;2023-02-01T05:46:00;22.90;52.60
39751;DHT22;37579;51.074;17.004;2023-02-01T05:48:26;22.90;52.50
39751;DHT22;37579;51.074;17.004;2023-02-01T05:50:52;22.90;52.50
39751;DHT22;37579;51.074;17.004;2023-02-01T05:53:18;22.90;52.40
39751;DHT22;37579;51.074;17.004;2023-02-01T05:55:44;22.90;52.30
39751;DHT22;37579;51.074;17.004;2023-02-01T05:58:10;22.90;52.30
39751;DHT22;37579;51.074;17.004;2023-02-01T06:00:36;23.00;52.30
39751;DHT22;37579;51.074;17.004;2023-02-01T06:03:01;23.00;52.20
39751;DHT22;37579;51.074;17.004;2023-02-01T06:05:27;23.00;52.20
39751;DHT22;37579;51.074;17.004;2023-02-01T06:07:53;23.00;52.20
39751;DHT22;37579;51.074;17.004;2023-02-01T06:10:19;22.90;52.10
39751;DHT22;37579;51.074;17.004;2023-02-01T06:12:46;22.90;52.10
39751;DHT22;37579;51.074;17.004;2023-02-01T06:15:12;22.90;52.00
39751;DHT22;37579;51.074;17.004;2023-02-01T06:17:39;23.00;52.10
39751;DHT22;37579;51.074;17.004;2023-02-01T06:20:07;23.00;52.10
39751;DHT22;37579;51.074;17.004;2023-02-01T06:22:33;23.00;52.10
39751;DHT22;37579;51.074;17.004;2023-02-01T06:25:05;22.90;52.00
39751;DHT22;37579;51.074;17.004;2023-02-01T06:27:32;22.90;52.00
39751;DHT22;37579;51.074;17.004;2023-02-01T06:29:58;22.90;52.00
39751;DHT22;37579;51.074;17.004;2023-02-01T06:32:24;22.90;52.00
39751;DHT22;37579;51.074;17.004;2023-02-01T06:34:50;22.90;52.10
39751;DHT22;37579;51.074;17.004;2023-02-01T06:37:19;22.80;52.00
39751;DHT22;37579;51.074;17.004;2023-02-01T06:39:45;22.90;52.10
39751;DHT22;37579;51.074;17.004;2023-02-01T06:42:11;22.80;52.10
39751;DHT22;37579;51.074;17.004;2023-02-01T06:44:36;22.80;52.10
39751;DHT22;37579;51.074;17.004;2023-02-01T06:47:05;22.80;52.20
39751;DHT22;37579;51.074;17.004;2023-02-01T06:49:31;22.80;52.10
39751;DHT22;37579;51.074;17.004;2023-02-01T06:51:57;22.80;52.20
39751;DHT22;37579;51.074;17.004;2023-02-01T06:54:26;22.80;52.20
39751;DHT22;37579;51.074;17.004;2023-02-01T06:56:52;22.80;52.20
39751;DHT22;37579;51.074;17.004;2023-02-01T06:59:18;22.80;52.20
39751;DHT22;37579;51.074;17.004;2023-02-01T07:01:44;22.80;52.20
39751;DHT22;37579;51.074;17.004;2023-02-01T07:04:13;22.80;52.20
39751;DHT22;37579;51.074;17.004;2023-02-01T07:06:39;22.80;52.10
39751;DHT22;37579;51.074;17.004;2023-02-01T07:09:06;22.80;52.10
39751;DHT22;37579;51.074;17.004;2023-02-01T07:11:31;22.80;52.20
39751;DHT22;37579;51.074;17.004;2023-02-01T07:13:58;22.80;52.10
39751;DHT22;37579;51.074;17.004;2023-02-01T07:16:24;22.80;52.10
39751;DHT22;37579;51.074;17.004;2023-02-01T07:18:51;22.80;52.10
39751;DHT22;37579;51.074;17.004;2023-02-01T07:21:17;22.80;52.10
39751;DHT22;37579;51.074;17.004;2023-02-01T07:23:43;22.80;52.10
39751;DHT22;37579;51.074;17.004;2023-02-01T07:26:12;22.80;52.00
39751;DHT22;37579;51.074;17.004;2023-02-01T07:28:39;22.80;52.00
39751;DHT22;37579;51.074;17.004;2023-02-01T07:31:10;22.80;51.90
39751;DHT22;37579;51.074;17.004;2023-02-01T07:33:36;22.80;51.80
39751;DHT22;37579;51.074;17.004;2023-02-01T07:36:04;22.90;51.70
39751;DHT22;37579;51.074;17.004;2023-02-01T07:38:31;22.90;51.70
39751;DHT22;37579;51.074;17.004;2023-02-01T07:41:01;22.90;51.60
39751;DHT22;37579;51.074;17.004;2023-02-01T07:43:28;22.90;51.60
39751;DHT22;37579;51.074;17.004;2023-02-01T07:45:55;23.00;51.60
39751;DHT22;37579;51.074;17.004;2023-02-01T07:48:22;23.00;52.30
39751;DHT22;37579;51.074;17.004;2023-02-01T07:50:56;23.00;51.50
39751;DHT22;37579;51.074;17.004;2023-02-01T07:53:21;23.00;51.50
39751;DHT22;37579;51.074;17.004;2023-02-01T07:55:47;23.00;51.60
39751;DHT22;37579;51.074;17.004;2023-02-01T07:58:13;23.00;51.50
39751;DHT22;37579;51.074;17.004;2023-02-01T08:00:39;23.10;51.60
39751;DHT22;37579;51.074;17.004;2023-02-01T08:03:23;23.10;51.60
39751;DHT22;37579;51.074;17.004;2023-02-01T08:05:54;23.10;51.60
39751;DHT22;37579;51.074;17.004;2023-02-01T08:08:21;23.10;51.80
39751;DHT22;37579;51.074;17.004;2023-02-01T08:10:47;23.20;51.80
39751;DHT22;37579;51.074;17.004;2023-02-01T08:13:13;23.20;51.90
39751;DHT22;37579;51.074;17.004;2023-02-01T08:15:38;23.20;52.00
39751;DHT22;37579;51.074;17.004;2023-02-01T08:18:04;23.20;52.10
39751;DHT22;37579;51.074;17.004;2023-02-01T08:20:30;23.30;52.40
39751;DHT22;37579;51.074;17.004;2023-02-01T08:22:56;23.30;52.50
39751;DHT22;37579;51.074;17.004;2023-02-01T08:25:23;23.30;52.60
39751;DHT22;37579;51.074;17.004;2023-02-01T08:27:50;23.30;52.60
39751;DHT22;37579;51.074;17.004;2023-02-01T08:30:16;23.40;52.70
39751;DHT22;37579;51.074;17.004;2023-02-01T08:32:42;23.30;52.90
39751;DHT22;37579;51.074;17.004;2023-02-01T08:35:08;23.40;53.30
39751;DHT22;37579;51.074;17.004;2023-02-01T08:37:34;23.50;53.60
39751;DHT22;37579;51.074;17.004;2023-02-01T08:40:00;23.40;53.60
39751;DHT22;37579;51.074;17.004;2023-02-01T08:42:25;23.50;54.20
39751;DHT22;37579;51.074;17.004;2023-02-01T08:45:10;23.50;53.60
39751;DHT22;37579;51.074;17.004;2023-02-01T08:47:36;23.50;53.50
39751;DHT22;37579;51.074;17.004;2023-02-01T08:50:02;23.50;53.30
39751;DHT22;37579;51.074;17.004;2023-02-01T08:52:28;23.50;53.20
39751;DHT22;37579;51.074;17.004;2023-02-01T08:54:54;23.60;53.30
39751;DHT22;37579;51.074;17.004;2023-02-01T08:57:19;23.60;53.20
39751;DHT22;37579;51.074;17.004;2023-02-01T08:59:45;23.60;53.20
39751;DHT22;37579;51.074;17.004;2023-02-01T09:02:15;23.60;53.10
39751;DHT22;37579;51.074;17.004;2023-02-01T09:04:41;23.60;53.30
39751;DHT22;37579;51.074;17.004;2023-02-01T09:07:09;23.60;53.40
39751;DHT22;37579;51.074;17.004;2023-02-01T09:09:35;23.60;53.40
39751;DHT22;37579;51.074;17.004;2023-02-01T09:12:02;23.60;53.40
39751;DHT22;37579;51.074;17.004;2023-02-01T09:14:27;23.60;53.50
39751;DHT22;37579;51.074;17.004;2023-02-01T09:16:53;23.60;53.40
39751;DHT22;37579;51.074;17.004;2023-02-01T09:19:19;23.60;53.50
39751;DHT22;37579;51.074;17.004;2023-02-01T09:21:45;23.60;53.60
39751;DHT22;37579;51.074;17.004;2023-02-01T09:24:11;23.60;53.50
39751;DHT22;37579;51.074;17.004;2023-02-01T09:26:37;23.60;53.50
39751;DHT22;37579;51.074;17.004;2023-02-01T09:29:03;23.60;53.60
39751;DHT22;37579;51.074;17.004;2023-02-01T09:31:33;23.60;53.50
39751;DHT22;37579;51.074;17.004;2023-02-01T09:34:00;23.60;53.50
39751;DHT22;37579;51.074;17.004;2023-02-01T09:36:26;23.60;53.40
39751;DHT22;37579;51.074;17.004;2023-02-01T09:38:52;23.70;53.50
39751;DHT22;37579;51.074;17.004;2023-02-01T09:47:29;23.80;53.30
39751;DHT22;37579;51.074;17.004;2023-02-01T09:50:39;23.80;53.30
39751;DHT22;37579;51.074;17.004;2023-02-01T09:53:15;23.90;53.30
39751;DHT22;37579;51.074;17.004;2023-02-01T09:55:47;23.90;53.10
39751;DHT22;37579;51.074;17.004;2023-02-01T09:58:19;23.90;53.20
39751;DHT22;37579;51.074;17.004;2023-02-01T10:00:54;23.90;53.30
39751;DHT22;37579;51.074;17.004;2023-02-01T10:03:21;23.90;53.30
39751;DHT22;37579;51.074;17.004;2023-02-01T10:14:58;23.90;54.10
39751;DHT22;37579;51.074;17.004;2023-02-01T10:20:56;23.80;54.00
39751;DHT22;37579;51.074;17.004;2023-02-01T10:26:22;23.80;53.90
39751;DHT22;37579;51.074;17.004;2023-02-01T10:28:51;23.80;54.00
39751;DHT22;37579;51.074;17.004;2023-02-01T10:31:18;23.80;54.10
39751;DHT22;37579;51.074;17.004;2023-02-01T10:33:51;23.80;54.00
39751;DHT22;37579;51.074;17.004;2023-02-01T10:36:20;23.70;54.00
39751;DHT22;37579;51.074;17.004;2023-02-01T10:38:47;23.70;54.10
39751;DHT22;37579;51.074;17.004;2023-02-01T10:41:19;23.70;54.10
39751;DHT22;37579;51.074;17.004;2023-02-01T10:43:50;23.60;54.20
39751;DHT22;37579;51.074;17.004;2023-02-01T10:46:17;23.60;54.20
39751;DHT22;37579;51.074;17.004;2023-02-01T10:48:43;23.50;54.20
39751;DHT22;37579;51.074;17.004;2023-02-01T10:51:16;23.50;54.20
39751;DHT22;37579;51.074;17.004;2023-02-01T10:54:14;23.50;54.30
39751;DHT22;37579;51.074;17.004;2023-02-01T10:56:44;23.50;54.50
39751;DHT22;37579;51.074;17.004;2023-02-01T10:59:19;23.50;54.50
39751;DHT22;37579;51.074;17.004;2023-02-01T11:01:47;23.50;54.50
39751;DHT22;37579;51.074;17.004;2023-02-01T11:04:17;23.40;54.40
39751;DHT22;37579;51.074;17.004;2023-02-01T11:07:04;23.40;54.30
39751;DHT22;37579;51.074;17.004;2023-02-01T11:09:39;23.40;54.50
39751;DHT22;37579;51.074;17.004;2023-02-01T11:12:25;23.40;54.70
39751;DHT22;37579;51.074;17.004;2023-02-01T11:15:19;23.40;54.70
39751;DHT22;37579;51.074;17.004;2023-02-01T11:17:45;23.40;54.50
39751;DHT22;37579;51.074;17.004;2023-02-01T11:20:17;23.40;54.40
39751;DHT22;37579;51.074;17.004;2023-02-01T11:22:54;23.40;54.20
39751;DHT22;37579;51.074;17.004;2023-02-01T11:25:22;23.50;54.00
39751;DHT22;37579;51.074;17.004;2023-02-01T11:27:50;23.50;53.90
39751;DHT22;37579;51.074;17.004;2023-02-01T11:30:30;23.50;53.90
39751;DHT22;37579;51.074;17.004;2023-02-01T11:32:57;23.50;53.70
39751;DHT22;37579;51.074;17.004;2023-02-01T11:35:26;23.50;53.60
39751;DHT22;37579;51.074;17.004;2023-02-01T11:37:58;23.60;53.40
39751;DHT22;37579;51.074;17.004;2023-02-01T11:40:29;23.60;54.00
39751;DHT22;37579;51.074;17.004;2023-02-01T11:42:57;23.60;53.20
39751;DHT22;37579;51.074;17.004;2023-02-01T11:45:31;23.60;53.10
39751;DHT22;37579;51.074;17.004;2023-02-01T11:48:00;23.60;53.10
39751;DHT22;37579;51.074;17.004;2023-02-01T11:56:29;23.70;53.00
39751;DHT22;37579;51.074;17.004;2023-02-01T12:02:00;23.60;52.90
39751;DHT22;37579;51.074;17.004;2023-02-01T12:15:57;23.70;53.00
39751;DHT22;37579;51.074;17.004;2023-02-01T12:24:07;23.70;54.30
39751;DHT22;37579;51.074;17.004;2023-02-01T12:26:50;23.70;54.20
39751;DHT22;37579;51.074;17.004;2023-02-01T12:42:44;23.70;54.10
39751;DHT22;37579;51.074;17.004;2023-02-01T12:50:56;23.70;53.60
39751;DHT22;37579;51.074;17.004;2023-02-01T12:53:31;23.70;53.50
39751;DHT22;37579;51.074;17.004;2023-02-01T12:56:03;23.70;53.30
39751;DHT22;37579;51.074;17.004;2023-02-01T12:58:48;23.70;53.30
39751;DHT22;37579;51.074;17.004;2023-02-01T13:01:34;23.80;53.30
39751;DHT22;37579;51.074;17.004;2023-02-01T13:07:11;23.70;53.10
39751;DHT22;37579;51.074;17.004;2023-02-01T13:12:26;23.70;53.10
39751;DHT22;37579;51.074;17.004;2023-02-01T13:15:02;23.70;53.10
39751;DHT22;37579;51.074;17.004;2023-02-01T13:17:32;23.70;53.00
39751;DHT22;37579;51.074;17.004;2023-02-01T13:20:34;23.80;53.00
39751;DHT22;37579;51.074;17.004;2023-02-01T13:23:09;23.70;53.10
39751;DHT22;37579;51.074;17.004;2023-02-01T13:28:28;23.70;53.20
39751;DHT22;37579;51.074;17.004;2023-02-01T13:42:54;23.90;52.90
39751;DHT22;37579;51.074;17.004;2023-02-01T13:45:24;23.90;53.00
39751;DHT22;37579;51.074;17.004;2023-02-01T13:47:53;23.90;53.00
39751;DHT22;37579;51.074;17.004;2023-02-01T13:50:29;23.90;53.00
39751;DHT22;37579;51.074;17.004;2023-02-01T13:53:17;23.90;52.90
39751;DHT22;37579;51.074;17.004;2023-02-01T13:55:50;23.90;52.60
39751;DHT22;37579;51.074;17.004;2023-02-01T13:58:43;23.90;52.40
39751;DHT22;37579;51.074;17.004;2023-02-01T14:03:56;24.00;52.30
39751;DHT22;37579;51.074;17.004;2023-02-01T14:11:38;23.90;52.10
39751;DHT22;37579;51.074;17.004;2023-02-01T14:16:43;23.80;52.10
39751;DHT22;37579;51.074;17.004;2023-02-01T14:19:20;23.80;52.20
39751;DHT22;37579;51.074;17.004;2023-02-01T14:21:49;23.70;52.10
39751;DHT22;37579;51.074;17.004;2023-02-01T14:24:25;23.70;52.10
39751;DHT22;37579;51.074;17.004;2023-02-01T14:27:24;23.70;52.00
39751;DHT22;37579;51.074;17.004;2023-02-01T14:29:59;23.60;52.00
39751;DHT22;37579;51.074;17.004;2023-02-01T14:32:37;23.60;52.10
39751;DHT22;37579;51.074;17.004;2023-02-01T14:35:19;23.60;52.10
39751;DHT22;37579;51.074;17.004;2023-02-01T14:37:50;23.50;52.10
39751;DHT22;37579;51.074;17.004;2023-02-01T14:40:22;23.50;52.10
39751;DHT22;37579;51.074;17.004;2023-02-01T14:42:51;23.50;52.20
39751;DHT22;37579;51.074;17.004;2023-02-01T14:56:06;23.50;53.00
39751;DHT22;37579;51.074;17.004;2023-02-01T14:58:41;23.40;53.10
39751;DHT22;37579;51.074;17.004;2023-02-01T15:01:23;23.40;53.20
39751;DHT22;37579;51.074;17.004;2023-02-01T15:06:42;23.40;53.40
39751;DHT22;37579;51.074;17.004;2023-02-01T15:12:17;23.40;53.50
39751;DHT22;37579;51.074;17.004;2023-02-01T15:17:34;23.40;53.70
39751;DHT22;37579;51.074;17.004;2023-02-01T15:20:03;23.40;53.90
39751;DHT22;37579;51.074;17.004;2023-02-01T15:22:31;23.40;54.00
39751;DHT22;37579;51.074;17.004;2023-02-01T15:24:58;23.40;53.80
39751;DHT22;37579;51.074;17.004;2023-02-01T15:27:36;23.40;53.80
39751;DHT22;37579;51.074;17.004;2023-02-01T15:30:17;23.40;53.90
39751;DHT22;37579;51.074;17.004;2023-02-01T15:32:43;23.50;53.90
39751;DHT22;37579;51.074;17.004;2023-02-01T15:35:32;23.50;53.90
39751;DHT22;37579;51.074;17.004;2023-02-01T15:40:58;23.40;54.00
39751;DHT22;37579;51.074;17.004;2023-02-01T15:43:26;23.40;54.00
39751;DHT22;37579;51.074;17.004;2023-02-01T15:45:56;23.40;53.90
39751;DHT22;37579;51.074;17.004;2023-02-01T15:48:25;23.50;54.00
39751;DHT22;37579;51.074;17.004;2023-02-01T15:50:52;23.50;54.00
39751;DHT22;37579;51.074;17.004;2023-02-01T15:53:20;23.60;53.90
39751;DHT22;37579;51.074;17.004;2023-02-01T15:55:51;23.60;53.80
39751;DHT22;37579;51.074;17.004;2023-02-01T15:58:20;23.70;53.80
39751;DHT22;37579;51.074;17.004;2023-02-01T16:00:48;23.80;53.90
39751;DHT22;37579;51.074;17.004;2023-02-01T16:03:37;23.80;53.90
39751;DHT22;37579;51.074;17.004;2023-02-01T16:06:12;23.80;53.70
39751;DHT22;37579;51.074;17.004;2023-02-01T16:08:53;23.90;53.80
39751;DHT22;37579;51.074;17.004;2023-02-01T16:11:25;23.90;53.90
39751;DHT22;37579;51.074;17.004;2023-02-01T16:13:51;24.00;53.90
39751;DHT22;37579;51.074;17.004;2023-02-01T16:16:17;24.00;53.90
39751;DHT22;37579;51.074;17.004;2023-02-01T16:18:43;24.00;53.90
39751;DHT22;37579;51.074;17.004;2023-02-01T16:21:10;24.00;53.80
39751;DHT22;37579;51.074;17.004;2023-02-01T16:23:36;24.00;53.80
39751;DHT22;37579;51.074;17.004;2023-02-01T16:26:03;24.10;53.70
39751;DHT22;37579;51.074;17.004;2023-02-01T16:28:29;24.10;53.70
39751;DHT22;37579;51.074;17.004;2023-02-01T16:30:55;24.10;53.60
39751;DHT22;37579;51.074;17.004;2023-02-01T16:33:22;24.10;53.70
39751;DHT22;37579;51.074;17.004;2023-02-01T16:35:48;24.10;53.70
39751;DHT22;37579;51.074;17.004;2023-02-01T16:38:16;24.10;53.60
39751;DHT22;37579;51.074;17.004;2023-02-01T16:40:45;24.10;53.70
39751;DHT22;37579;51.074;17.004;2023-02-01T16:43:16;24.10;53.60
39751;DHT22;37579;51.074;17.004;2023-02-01T16:45:44;24.10;53.40
39751;DHT22;37579;51.074;17.004;2023-02-01T16:48:26;24.10;53.40
39751;DHT22;37579;51.074;17.004;2023-02-01T16:50:58;24.00;53.30
39751;DHT22;37579;51.074;17.004;2023-02-01T16:53:27;24.00;53.30
39751;DHT22;37579;51.074;17.004;2023-02-01T16:55:53;24.00;53.30
39751;DHT22;37579;51.074;17.004;2023-02-01T16:58:20;23.90;53.30
39751;DHT22;37579;51.074;17.004;2023-02-01T17:00:47;23.90;53.20
39751;DHT22;37579;51.074;17.004;2023-02-01T17:03:14;23.90;53.20
39751;DHT22;37579;51.074;17.004;2023-02-01T17:06:02;23.80;53.30
39751;DHT22;37579;51.074;17.004;2023-02-01T17:08:33;23.80;53.40
39751;DHT22;37579;51.074;17.004;2023-02-01T17:10:59;23.80;53.40
39751;DHT22;37579;51.074;17.004;2023-02-01T17:13:27;23.80;53.50
39751;DHT22;37579;51.074;17.004;2023-02-01T17:16:01;23.80;53.50
39751;DHT22;37579;51.074;17.004;2023-02-01T17:18:29;23.90;53.50
39751;DHT22;37579;51.074;17.004;2023-02-01T17:21:01;23.90;53.50
39751;DHT22;37579;51.074;17.004;2023-02-01T17:23:29;23.90;53.40
39751;DHT22;37579;51.074;17.004;2023-02-01T17:25:55;23.90;53.40
39751;DHT22;37579;51.074;17.004;2023-02-01T17:28:22;24.00;53.50
39751;DHT22;37579;51.074;17.004;2023-02-01T17:30:48;24.00;53.50
39751;DHT22;37579;51.074;17.004;2023-02-01T17:33:24;24.00;53.30
39751;DHT22;37579;51.074;17.004;2023-02-01T17:35:50;24.00;53.40
39751;DHT22;37579;51.074;17.004;2023-02-01T17:38:16;24.00;53.30
39751;DHT22;37579;51.074;17.004;2023-02-01T17:40:42;24.00;53.30
39751;DHT22;37579;51.074;17.004;2023-02-01T17:43:21;24.00;53.30
39751;DHT22;37579;51.074;17.004;2023-02-01T17:46:23;23.90;53.30
39751;DHT22;37579;51.074;17.004;2023-02-01T17:48:52;23.90;53.30
39751;DHT22;37579;51.074;17.004;2023-02-01T17:51:21;23.90;53.40
39751;DHT22;37579;51.074;17.004;2023-02-01T17:53:47;23.80;53.60
39751;DHT22;37579;51.074;17.004;2023-02-01T17:56:15;23.90;53.70
39751;DHT22;37579;51.074;17.004;2023-02-01T17:58:42;23.90;53.80
39751;DHT22;37579;51.074;17.004;2023-02-01T18:01:19;24.10;53.40
39751;DHT22;37579;51.074;17.004;2023-02-01T18:03:45;24.10;54.60
39751;DHT22;37579;51.074;17.004;2023-02-01T18:06:21;24.10;54.40
39751;DHT22;37579;51.074;17.004;2023-02-01T18:08:47;24.00;54.70
39751;DHT22;37579;51.074;17.004;2023-02-01T18:11:16;24.00;54.70